Terminal Aerodrome Forecast
Issued by NWS

Home | Current Version | Previous Version | Text Only | Print | Product List | Glossary On
Versions: 1 2 3 4 5 6 7 8 9 10 11 12 13 14 15 16 17 18
000
FTUS41 KCAR 032323
TAFPQI
TAF
KPQI 032323Z 0400/0424 VRB04KT P6SM VCTS SCT070CB
     FM040400 17007KT P6SM BKN025
     FM040700 16005KT P6SM OVC007
     FM041600 19005KT P6SM BKN050
     FM041800 20005KT P6SM BKN050
      TEMPO 0420/0424 5SM -SHRA
      AMD LTD TO CLD VIS AND WIND=

USA.gov is the U.S. government's official web portal to all federal, state and local government web resources and services.